Port Bolivar, Texas
Current Conditions -  °F | °C
As of 8:52 PM on Sunday 23 Nov 2014 (Local Time) from KGLS Reporting Station
Clear Clear  
Wind Chill: 67°   Ceiling: Unl
Heat Index: 67°   Visibility: 10mi
Dew Point: 64°   Wind: 12mph
Humidity: 90%   Direction: 210°SSW
Pressure: 29.68"   Gusts: NA
Location:  29.38°N, 94.77°W
Report Text: KGLS 240252Z AUTO 21010KT 10SM CLR 19/18 A2968 RMK AO2 SLP051 T01940178 53022
Loading
Personal Weather Stations






























Interactive Weather Map New forecast layout! Learn more

10-Day Weather Forecast

Advertisements
Track Severe Weather on mobile